sensor_id;sensor_type;location;lat;lon;timestamp;P1;durP1;ratioP1;P2;durP2;ratioP2
65863;SDS011;52639;51.180;20.460;2023-01-13T00:00:35;16.10;;;7.05;;
65863;SDS011;52639;51.180;20.460;2023-01-13T00:04:56;18.08;;;7.30;;
65863;SDS011;52639;51.180;20.460;2023-01-13T00:08:58;12.63;;;6.15;;
65863;SDS011;52639;51.180;20.460;2023-01-13T00:13:02;17.55;;;7.15;;
65863;SDS011;52639;51.180;20.460;2023-01-13T00:17:05;18.75;;;6.63;;
65863;SDS011;52639;51.180;20.460;2023-01-13T00:21:12;21.95;;;8.50;;
65863;SDS011;52639;51.180;20.460;2023-01-13T00:25:16;18.83;;;7.18;;
65863;SDS011;52639;51.180;20.460;2023-01-13T00:29:19;15.93;;;6.82;;
65863;SDS011;52639;51.180;20.460;2023-01-13T00:33:22;13.38;;;6.25;;
65863;SDS011;52639;51.180;20.460;2023-01-13T00:37:27;17.83;;;7.97;;
65863;SDS011;52639;51.180;20.460;2023-01-13T00:41:29;16.13;;;5.60;;
65863;SDS011;52639;51.180;20.460;2023-01-13T00:45:53;16.65;;;6.88;;
65863;SDS011;52639;51.180;20.460;2023-01-13T00:49:55;10.63;;;5.78;;
65863;SDS011;52639;51.180;20.460;2023-01-13T00:54:00;18.13;;;7.60;;
65863;SDS011;52639;51.180;20.460;2023-01-13T00:58:03;16.55;;;6.75;;
65863;SDS011;52639;51.180;20.460;2023-01-13T01:02:06;14.68;;;6.50;;
65863;SDS011;52639;51.180;20.460;2023-01-13T01:06:10;14.85;;;7.25;;
65863;SDS011;52639;51.180;20.460;2023-01-13T01:10:16;18.23;;;7.20;;
65863;SDS011;52639;51.180;20.460;2023-01-13T01:14:19;15.00;;;6.85;;
65863;SDS011;52639;51.180;20.460;2023-01-13T01:18:22;15.70;;;7.38;;
65863;SDS011;52639;51.180;20.460;2023-01-13T01:22:24;15.68;;;7.05;;
65863;SDS011;52639;51.180;20.460;2023-01-13T01:26:29;14.98;;;6.15;;
65863;SDS011;52639;51.180;20.460;2023-01-13T01:30:32;10.93;;;5.20;;
65863;SDS011;52639;51.180;20.460;2023-01-13T01:34:34;11.73;;;4.82;;
65863;SDS011;52639;51.180;20.460;2023-01-13T01:38:39;14.13;;;6.07;;
65863;SDS011;52639;51.180;20.460;2023-01-13T01:42:43;14.15;;;5.72;;
65863;SDS011;52639;51.180;20.460;2023-01-13T01:47:03;13.70;;;5.60;;
65863;SDS011;52639;51.180;20.460;2023-01-13T01:51:07;16.25;;;6.47;;
65863;SDS011;52639;51.180;20.460;2023-01-13T01:55:13;16.75;;;6.90;;
65863;SDS011;52639;51.180;20.460;2023-01-13T01:59:20;17.15;;;6.18;;
65863;SDS011;52639;51.180;20.460;2023-01-13T02:03:24;13.57;;;6.53;;
65863;SDS011;52639;51.180;20.460;2023-01-13T02:07:27;10.73;;;5.80;;
65863;SDS011;52639;51.180;20.460;2023-01-13T02:11:33;11.93;;;6.32;;
65863;SDS011;52639;51.180;20.460;2023-01-13T02:15:56;15.83;;;7.03;;
65863;SDS011;52639;51.180;20.460;2023-01-13T02:20:17;17.35;;;5.93;;
65863;SDS011;52639;51.180;20.460;2023-01-13T02:24:48;14.85;;;6.78;;
65863;SDS011;52639;51.180;20.460;2023-01-13T02:29:23;13.40;;;6.78;;
65863;SDS011;52639;51.180;20.460;2023-01-13T02:33:59;17.17;;;6.00;;
65863;SDS011;52639;51.180;20.460;2023-01-13T02:38:07;15.63;;;6.55;;
65863;SDS011;52639;51.180;20.460;2023-01-13T02:42:12;14.60;;;5.15;;
65863;SDS011;52639;51.180;20.460;2023-01-13T02:46:48;12.57;;;5.72;;
65863;SDS011;52639;51.180;20.460;2023-01-13T02:50:55;12.57;;;5.53;;
65863;SDS011;52639;51.180;20.460;2023-01-13T02:55:02;13.10;;;6.50;;
65863;SDS011;52639;51.180;20.460;2023-01-13T02:59:09;11.88;;;5.90;;
65863;SDS011;52639;51.180;20.460;2023-01-13T03:03:15;13.27;;;6.07;;
65863;SDS011;52639;51.180;20.460;2023-01-13T03:11:58;12.50;;;6.05;;
65863;SDS011;52639;51.180;20.460;2023-01-13T03:16:14;12.00;;;5.28;;
65863;SDS011;52639;51.180;20.460;2023-01-13T03:24:32;12.90;;;5.88;;
65863;SDS011;52639;51.180;20.460;2023-01-13T03:28:38;8.35;;;4.50;;
65863;SDS011;52639;51.180;20.460;2023-01-13T03:32:44;17.27;;;5.32;;
65863;SDS011;52639;51.180;20.460;2023-01-13T03:36:52;13.23;;;6.00;;
65863;SDS011;52639;51.180;20.460;2023-01-13T03:40:58;10.43;;;5.20;;
65863;SDS011;52639;51.180;20.460;2023-01-13T03:45:06;7.90;;;3.30;;
65863;SDS011;52639;51.180;20.460;2023-01-13T03:49:14;11.23;;;5.38;;
65863;SDS011;52639;51.180;20.460;2023-01-13T03:53:23;12.57;;;5.47;;
65863;SDS011;52639;51.180;20.460;2023-01-13T03:57:30;10.32;;;4.80;;
65863;SDS011;52639;51.180;20.460;2023-01-13T04:01:38;7.53;;;3.85;;
65863;SDS011;52639;51.180;20.460;2023-01-13T04:05:48;8.35;;;4.75;;
65863;SDS011;52639;51.180;20.460;2023-01-13T04:09:58;10.43;;;4.15;;
65863;SDS011;52639;51.180;20.460;2023-01-13T04:14:04;12.00;;;5.60;;
65863;SDS011;52639;51.180;20.460;2023-01-13T04:18:14;11.98;;;5.82;;
65863;SDS011;52639;51.180;20.460;2023-01-13T04:22:19;10.40;;;5.05;;
65863;SDS011;52639;51.180;20.460;2023-01-13T04:26:23;6.10;;;3.38;;
65863;SDS011;52639;51.180;20.460;2023-01-13T04:30:26;11.13;;;5.20;;
65863;SDS011;52639;51.180;20.460;2023-01-13T04:34:29;9.88;;;5.22;;
65863;SDS011;52639;51.180;20.460;2023-01-13T04:38:32;11.88;;;5.75;;
65863;SDS011;52639;51.180;20.460;2023-01-13T04:42:36;10.10;;;5.28;;
65863;SDS011;52639;51.180;20.460;2023-01-13T04:46:39;5.82;;;3.80;;
65863;SDS011;52639;51.180;20.460;2023-01-13T04:50:42;13.50;;;6.13;;
65863;SDS011;52639;51.180;20.460;2023-01-13T04:54:45;7.50;;;3.83;;
65863;SDS011;52639;51.180;20.460;2023-01-13T04:58:49;11.80;;;4.70;;
65863;SDS011;52639;51.180;20.460;2023-01-13T05:02:52;12.00;;;5.40;;
65863;SDS011;52639;51.180;20.460;2023-01-13T05:06:55;10.60;;;4.53;;
65863;SDS011;52639;51.180;20.460;2023-01-13T05:10:58;8.52;;;4.50;;
65863;SDS011;52639;51.180;20.460;2023-01-13T05:15:03;12.35;;;5.40;;
65863;SDS011;52639;51.180;20.460;2023-01-13T05:19:23;11.73;;;5.88;;
65863;SDS011;52639;51.180;20.460;2023-01-13T05:23:26;11.48;;;5.32;;
65863;SDS011;52639;51.180;20.460;2023-01-13T05:27:46;10.48;;;4.50;;
65863;SDS011;52639;51.180;20.460;2023-01-13T05:31:51;9.88;;;4.75;;
65863;SDS011;52639;51.180;20.460;2023-01-13T05:35:54;5.65;;;3.38;;
65863;SDS011;52639;51.180;20.460;2023-01-13T05:39:57;9.60;;;5.30;;
65863;SDS011;52639;51.180;20.460;2023-01-13T05:44:17;10.65;;;4.90;;
65863;SDS011;52639;51.180;20.460;2023-01-13T05:48:22;8.45;;;5.03;;
65863;SDS011;52639;51.180;20.460;2023-01-13T05:52:27;9.30;;;4.80;;
65863;SDS011;52639;51.180;20.460;2023-01-13T05:56:30;11.13;;;4.47;;
65863;SDS011;52639;51.180;20.460;2023-01-13T06:00:33;10.82;;;4.82;;
65863;SDS011;52639;51.180;20.460;2023-01-13T06:04:37;9.80;;;4.85;;
65863;SDS011;52639;51.180;20.460;2023-01-13T06:08:40;6.13;;;3.55;;
65863;SDS011;52639;51.180;20.460;2023-01-13T06:12:43;9.90;;;4.57;;
65863;SDS011;52639;51.180;20.460;2023-01-13T06:16:46;8.55;;;4.72;;
65863;SDS011;52639;51.180;20.460;2023-01-13T06:20:50;9.63;;;4.60;;
65863;SDS011;52639;51.180;20.460;2023-01-13T06:24:53;8.57;;;4.50;;
65863;SDS011;52639;51.180;20.460;2023-01-13T06:28:56;8.15;;;4.60;;
65863;SDS011;52639;51.180;20.460;2023-01-13T06:32:59;12.10;;;4.55;;
65863;SDS011;52639;51.180;20.460;2023-01-13T06:37:06;7.15;;;4.13;;
65863;SDS011;52639;51.180;20.460;2023-01-13T06:41:10;10.18;;;4.72;;
65863;SDS011;52639;51.180;20.460;2023-01-13T06:45:13;10.63;;;4.65;;
65863;SDS011;52639;51.180;20.460;2023-01-13T06:49:16;10.00;;;4.47;;
65863;SDS011;52639;51.180;20.460;2023-01-13T06:53:21;8.30;;;5.13;;
65863;SDS011;52639;51.180;20.460;2023-01-13T06:57:24;8.50;;;4.60;;
65863;SDS011;52639;51.180;20.460;2023-01-13T07:01:26;8.48;;;4.70;;
65863;SDS011;52639;51.180;20.460;2023-01-13T07:05:29;11.65;;;4.95;;
65863;SDS011;52639;51.180;20.460;2023-01-13T07:09:34;11.93;;;4.80;;
65863;SDS011;52639;51.180;20.460;2023-01-13T07:13:37;7.05;;;4.20;;
65863;SDS011;52639;51.180;20.460;2023-01-13T07:17:57;10.25;;;4.90;;
65863;SDS011;52639;51.180;20.460;2023-01-13T07:22:01;10.60;;;4.53;;
65863;SDS011;52639;51.180;20.460;2023-01-13T07:26:05;11.23;;;5.47;;
65863;SDS011;52639;51.180;20.460;2023-01-13T07:30:10;8.30;;;4.63;;
65863;SDS011;52639;51.180;20.460;2023-01-13T07:34:14;7.32;;;4.20;;
65863;SDS011;52639;51.180;20.460;2023-01-13T07:38:17;10.32;;;4.78;;
65863;SDS011;52639;51.180;20.460;2023-01-13T07:42:21;11.10;;;5.38;;
65863;SDS011;52639;51.180;20.460;2023-01-13T07:46:41;4.35;;;2.67;;
65863;SDS011;52639;51.180;20.460;2023-01-13T07:50:44;10.88;;;4.78;;
65863;SDS011;52639;51.180;20.460;2023-01-13T07:54:47;6.32;;;4.03;;
65863;SDS011;52639;51.180;20.460;2023-01-13T07:58:52;9.15;;;4.47;;
65863;SDS011;52639;51.180;20.460;2023-01-13T08:02:55;9.25;;;4.70;;
65863;SDS011;52639;51.180;20.460;2023-01-13T08:07:01;9.70;;;5.20;;
65863;SDS011;52639;51.180;20.460;2023-01-13T08:11:06;8.77;;;4.25;;
65863;SDS011;52639;51.180;20.460;2023-01-13T08:15:11;3.97;;;2.42;;
65863;SDS011;52639;51.180;20.460;2023-01-13T08:19:14;9.82;;;5.22;;
65863;SDS011;52639;51.180;20.460;2023-01-13T08:23:17;8.23;;;4.80;;
65863;SDS011;52639;51.180;20.460;2023-01-13T08:27:21;8.85;;;4.45;;
65863;SDS011;52639;51.180;20.460;2023-01-13T08:31:25;7.90;;;4.65;;
65863;SDS011;52639;51.180;20.460;2023-01-13T08:35:28;7.15;;;4.00;;
65863;SDS011;52639;51.180;20.460;2023-01-13T08:39:31;9.20;;;5.25;;
65863;SDS011;52639;51.180;20.460;2023-01-13T08:43:36;8.55;;;4.60;;
65863;SDS011;52639;51.180;20.460;2023-01-13T08:47:39;10.18;;;5.35;;
65863;SDS011;52639;51.180;20.460;2023-01-13T08:51:43;8.93;;;4.97;;
65863;SDS011;52639;51.180;20.460;2023-01-13T08:55:46;9.40;;;4.45;;
65863;SDS011;52639;51.180;20.460;2023-01-13T08:59:49;7.70;;;3.97;;
65863;SDS011;52639;51.180;20.460;2023-01-13T09:03:54;8.35;;;4.20;;
65863;SDS011;52639;51.180;20.460;2023-01-13T09:07:57;10.30;;;4.18;;
65863;SDS011;52639;51.180;20.460;2023-01-13T09:12:00;11.00;;;4.13;;
65863;SDS011;52639;51.180;20.460;2023-01-13T09:16:20;8.30;;;4.10;;
65863;SDS011;52639;51.180;20.460;2023-01-13T09:20:25;8.48;;;4.25;;
65863;SDS011;52639;51.180;20.460;2023-01-13T09:24:28;9.88;;;4.25;;
65863;SDS011;52639;51.180;20.460;2023-01-13T09:28:31;10.05;;;4.60;;
65863;SDS011;52639;51.180;20.460;2023-01-13T09:32:34;10.10;;;4.32;;
65863;SDS011;52639;51.180;20.460;2023-01-13T09:36:40;8.00;;;4.63;;
65863;SDS011;52639;51.180;20.460;2023-01-13T09:40:43;8.10;;;4.75;;
65863;SDS011;52639;51.180;20.460;2023-01-13T09:44:51;135.20;;;46.42;;
65863;SDS011;52639;51.180;20.460;2023-01-13T09:48:58;13.07;;;7.18;;
65863;SDS011;52639;51.180;20.460;2023-01-13T09:53:05;10.50;;;5.45;;
65863;SDS011;52639;51.180;20.460;2023-01-13T09:57:17;16.48;;;10.50;;
65863;SDS011;52639;51.180;20.460;2023-01-13T10:01:22;10.90;;;5.65;;
65863;SDS011;52639;51.180;20.460;2023-01-13T10:05:33;12.27;;;4.82;;
65863;SDS011;52639;51.180;20.460;2023-01-13T10:09:43;8.90;;;5.10;;
65863;SDS011;52639;51.180;20.460;2023-01-13T10:13:51;6.60;;;3.83;;
65863;SDS011;52639;51.180;20.460;2023-01-13T10:18:00;11.75;;;5.70;;
65863;SDS011;52639;51.180;20.460;2023-01-13T10:22:16;11.33;;;5.83;;
65863;SDS011;52639;51.180;20.460;2023-01-13T10:26:33;12.50;;;6.32;;
65863;SDS011;52639;51.180;20.460;2023-01-13T10:30:51;9.68;;;5.30;;
65863;SDS011;52639;51.180;20.460;2023-01-13T10:34:54;9.70;;;4.90;;
65863;SDS011;52639;51.180;20.460;2023-01-13T10:39:05;5.60;;;2.92;;
65863;SDS011;52639;51.180;20.460;2023-01-13T10:43:11;9.27;;;4.53;;
65863;SDS011;52639;51.180;20.460;2023-01-13T10:47:19;8.45;;;5.00;;
65863;SDS011;52639;51.180;20.460;2023-01-13T10:51:25;9.02;;;5.00;;
65863;SDS011;52639;51.180;20.460;2023-01-13T10:55:29;10.25;;;5.20;;
65863;SDS011;52639;51.180;20.460;2023-01-13T10:59:35;9.63;;;4.25;;
65863;SDS011;52639;51.180;20.460;2023-01-13T11:03:38;10.05;;;4.47;;
65863;SDS011;52639;51.180;20.460;2023-01-13T11:07:45;10.35;;;4.60;;
65863;SDS011;52639;51.180;20.460;2023-01-13T11:11:52;11.13;;;4.70;;
65863;SDS011;52639;51.180;20.460;2023-01-13T11:15:59;9.85;;;4.40;;
65863;SDS011;52639;51.180;20.460;2023-01-13T11:20:14;9.65;;;4.40;;
65863;SDS011;52639;51.180;20.460;2023-01-13T11:24:22;7.72;;;4.40;;
65863;SDS011;52639;51.180;20.460;2023-01-13T11:28:37;10.00;;;4.07;;
65863;SDS011;52639;51.180;20.460;2023-01-13T11:32:55;8.55;;;4.10;;
65863;SDS011;52639;51.180;20.460;2023-01-13T11:37:07;7.55;;;3.60;;
65863;SDS011;52639;51.180;20.460;2023-01-13T11:41:16;8.65;;;4.13;;
65863;SDS011;52639;51.180;20.460;2023-01-13T11:45:29;6.97;;;3.75;;
65863;SDS011;52639;51.180;20.460;2023-01-13T11:49:39;9.50;;;3.80;;
65863;SDS011;52639;51.180;20.460;2023-01-13T11:54:01;7.95;;;4.22;;
65863;SDS011;52639;51.180;20.460;2023-01-13T12:02:52;7.93;;;4.10;;
65863;SDS011;52639;51.180;20.460;2023-01-13T12:07:03;6.47;;;3.60;;
65863;SDS011;52639;51.180;20.460;2023-01-13T12:11:17;7.18;;;4.22;;
65863;SDS011;52639;51.180;20.460;2023-01-13T12:15:30;8.48;;;3.90;;
65863;SDS011;52639;51.180;20.460;2023-01-13T12:19:57;7.47;;;3.55;;
65863;SDS011;52639;51.180;20.460;2023-01-13T12:28:27;8.73;;;3.78;;
65863;SDS011;52639;51.180;20.460;2023-01-13T12:32:39;8.43;;;4.30;;
65863;SDS011;52639;51.180;20.460;2023-01-13T12:36:46;12.80;;;3.75;;
65863;SDS011;52639;51.180;20.460;2023-01-13T12:41:01;12.00;;;5.30;;
65863;SDS011;52639;51.180;20.460;2023-01-13T12:45:25;28.80;;;12.68;;
65863;SDS011;52639;51.180;20.460;2023-01-13T12:49:30;43.20;;;17.23;;
65863;SDS011;52639;51.180;20.460;2023-01-13T12:53:34;17.02;;;7.30;;
65863;SDS011;52639;51.180;20.460;2023-01-13T12:57:40;9.65;;;4.53;;
65863;SDS011;52639;51.180;20.460;2023-01-13T13:06:29;9.52;;;3.83;;
65863;SDS011;52639;51.180;20.460;2023-01-13T13:10:35;6.72;;;3.92;;
65863;SDS011;52639;51.180;20.460;2023-01-13T13:15:00;6.80;;;3.67;;
65863;SDS011;52639;51.180;20.460;2023-01-13T13:23:56;5.78;;;3.60;;
65863;SDS011;52639;51.180;20.460;2023-01-13T13:28:10;9.35;;;3.78;;
65863;SDS011;52639;51.180;20.460;2023-01-13T13:36:59;8.88;;;3.60;;
65863;SDS011;52639;51.180;20.460;2023-01-13T13:41:20;5.38;;;3.03;;
65863;SDS011;52639;51.180;20.460;2023-01-13T13:45:48;6.35;;;3.28;;
65863;SDS011;52639;51.180;20.460;2023-01-13T13:50:13;8.00;;;3.80;;
65863;SDS011;52639;51.180;20.460;2023-01-13T13:54:18;9.30;;;4.68;;
65863;SDS011;52639;51.180;20.460;2023-01-13T13:58:24;7.07;;;3.70;;
65863;SDS011;52639;51.180;20.460;2023-01-13T14:02:29;6.07;;;3.10;;
65863;SDS011;52639;51.180;20.460;2023-01-13T14:06:34;6.30;;;3.60;;
65863;SDS011;52639;51.180;20.460;2023-01-13T14:10:38;6.85;;;3.50;;
65863;SDS011;52639;51.180;20.460;2023-01-13T14:14:43;7.85;;;3.90;;
65863;SDS011;52639;51.180;20.460;2023-01-13T14:18:47;11.57;;;5.03;;
65863;SDS011;52639;51.180;20.460;2023-01-13T14:22:52;10.30;;;5.25;;
65863;SDS011;52639;51.180;20.460;2023-01-13T14:27:09;8.00;;;4.40;;
65863;SDS011;52639;51.180;20.460;2023-01-13T14:31:16;7.65;;;3.92;;
65863;SDS011;52639;51.180;20.460;2023-01-13T14:35:19;5.20;;;2.72;;
65863;SDS011;52639;51.180;20.460;2023-01-13T14:39:25;7.07;;;3.95;;
65863;SDS011;52639;51.180;20.460;2023-01-13T14:43:41;7.22;;;3.42;;
65863;SDS011;52639;51.180;20.460;2023-01-13T14:47:48;8.80;;;3.78;;
65863;SDS011;52639;51.180;20.460;2023-01-13T14:52:02;7.28;;;3.67;;
65863;SDS011;52639;51.180;20.460;2023-01-13T15:05:33;9.38;;;4.60;;
65863;SDS011;52639;51.180;20.460;2023-01-13T15:09:39;14.13;;;6.53;;
65863;SDS011;52639;51.180;20.460;2023-01-13T15:13:48;17.88;;;7.82;;
65863;SDS011;52639;51.180;20.460;2023-01-13T15:17:57;13.90;;;6.82;;
65863;SDS011;52639;51.180;20.460;2023-01-13T15:22:01;16.70;;;7.55;;
65863;SDS011;52639;51.180;20.460;2023-01-13T15:26:13;73.32;;;31.52;;
65863;SDS011;52639;51.180;20.460;2023-01-13T15:30:25;17.83;;;9.98;;
65863;SDS011;52639;51.180;20.460;2023-01-13T15:34:29;51.67;;;28.95;;
65863;SDS011;52639;51.180;20.460;2023-01-13T15:38:32;16.08;;;8.57;;
65863;SDS011;52639;51.180;20.460;2023-01-13T15:42:46;24.75;;;10.50;;
65863;SDS011;52639;51.180;20.460;2023-01-13T15:47:25;15.65;;;7.30;;
65863;SDS011;52639;51.180;20.460;2023-01-13T15:51:30;81.65;;;41.13;;
65863;SDS011;52639;51.180;20.460;2023-01-13T15:55:34;13.68;;;9.20;;
65863;SDS011;52639;51.180;20.460;2023-01-13T15:59:40;12.75;;;8.35;;
65863;SDS011;52639;51.180;20.460;2023-01-13T16:03:45;43.65;;;30.13;;
65863;SDS011;52639;51.180;20.460;2023-01-13T16:07:48;139.20;;;56.17;;
65863;SDS011;52639;51.180;20.460;2023-01-13T16:11:54;98.63;;;43.25;;
65863;SDS011;52639;51.180;20.460;2023-01-13T16:15:57;100.47;;;44.97;;
65863;SDS011;52639;51.180;20.460;2023-01-13T16:20:02;106.38;;;42.75;;
65863;SDS011;52639;51.180;20.460;2023-01-13T16:24:06;52.88;;;20.10;;
65863;SDS011;52639;51.180;20.460;2023-01-13T16:28:12;24.50;;;13.05;;
65863;SDS011;52639;51.180;20.460;2023-01-13T16:32:21;31.43;;;16.57;;
65863;SDS011;52639;51.180;20.460;2023-01-13T16:36:25;23.50;;;14.10;;
65863;SDS011;52639;51.180;20.460;2023-01-13T16:40:31;21.02;;;13.13;;
65863;SDS011;52639;51.180;20.460;2023-01-13T16:44:36;29.10;;;15.73;;
65863;SDS011;52639;51.180;20.460;2023-01-13T16:48:40;25.23;;;14.88;;
65863;SDS011;52639;51.180;20.460;2023-01-13T16:52:45;38.58;;;14.85;;
65863;SDS011;52639;51.180;20.460;2023-01-13T16:56:49;31.83;;;13.43;;
65863;SDS011;52639;51.180;20.460;2023-01-13T17:00:52;73.63;;;28.70;;
65863;SDS011;52639;51.180;20.460;2023-01-13T17:04:55;74.55;;;29.15;;
65863;SDS011;52639;51.180;20.460;2023-01-13T17:09:00;30.63;;;14.43;;
65863;SDS011;52639;51.180;20.460;2023-01-13T17:13:04;36.63;;;14.75;;
65863;SDS011;52639;51.180;20.460;2023-01-13T17:17:07;26.90;;;11.90;;
65863;SDS011;52639;51.180;20.460;2023-01-13T17:21:21;34.90;;;17.95;;
65863;SDS011;52639;51.180;20.460;2023-01-13T17:25:25;22.70;;;11.95;;
65863;SDS011;52639;51.180;20.460;2023-01-13T17:29:29;19.52;;;9.65;;
65863;SDS011;52639;51.180;20.460;2023-01-13T17:33:33;15.18;;;6.63;;
65863;SDS011;52639;51.180;20.460;2023-01-13T17:37:37;23.08;;;9.50;;
65863;SDS011;52639;51.180;20.460;2023-01-13T17:41:42;25.73;;;11.82;;
65863;SDS011;52639;51.180;20.460;2023-01-13T17:45:46;15.40;;;7.20;;
65863;SDS011;52639;51.180;20.460;2023-01-13T17:49:50;15.05;;;6.97;;
65863;SDS011;52639;51.180;20.460;2023-01-13T17:53:53;19.65;;;8.27;;
65863;SDS011;52639;51.180;20.460;2023-01-13T17:57:58;19.10;;;6.97;;
65863;SDS011;52639;51.180;20.460;2023-01-13T18:02:01;18.08;;;7.82;;
65863;SDS011;52639;51.180;20.460;2023-01-13T18:06:05;19.98;;;7.70;;
65863;SDS011;52639;51.180;20.460;2023-01-13T18:10:11;20.73;;;8.65;;
65863;SDS011;52639;51.180;20.460;2023-01-13T18:14:15;27.27;;;12.30;;
65863;SDS011;52639;51.180;20.460;2023-01-13T18:18:22;41.42;;;16.80;;
65863;SDS011;52639;51.180;20.460;2023-01-13T18:22:26;18.00;;;8.32;;
65863;SDS011;52639;51.180;20.460;2023-01-13T18:26:47;23.48;;;13.02;;
65863;SDS011;52639;51.180;20.460;2023-01-13T18:31:11;10.57;;;5.38;;
65863;SDS011;52639;51.180;20.460;2023-01-13T18:35:18;36.10;;;15.55;;
65863;SDS011;52639;51.180;20.460;2023-01-13T18:39:21;11.98;;;7.13;;
65863;SDS011;52639;51.180;20.460;2023-01-13T18:43:26;40.60;;;19.75;;
65863;SDS011;52639;51.180;20.460;2023-01-13T18:47:31;18.25;;;8.88;;
65863;SDS011;52639;51.180;20.460;2023-01-13T18:51:36;13.70;;;7.03;;
65863;SDS011;52639;51.180;20.460;2023-01-13T18:55:41;13.38;;;6.18;;
65863;SDS011;52639;51.180;20.460;2023-01-13T18:59:47;14.57;;;6.03;;
65863;SDS011;52639;51.180;20.460;2023-01-13T19:03:56;16.67;;;8.60;;
65863;SDS011;52639;51.180;20.460;2023-01-13T19:08:03;15.35;;;7.75;;
65863;SDS011;52639;51.180;20.460;2023-01-13T19:12:07;14.60;;;7.75;;
65863;SDS011;52639;51.180;20.460;2023-01-13T19:16:12;13.38;;;5.78;;
65863;SDS011;52639;51.180;20.460;2023-01-13T19:20:17;15.90;;;6.85;;
65863;SDS011;52639;51.180;20.460;2023-01-13T19:24:22;11.70;;;6.55;;
65863;SDS011;52639;51.180;20.460;2023-01-13T19:28:27;11.43;;;6.03;;
65863;SDS011;52639;51.180;20.460;2023-01-13T19:32:31;14.25;;;6.43;;
65863;SDS011;52639;51.180;20.460;2023-01-13T19:36:38;14.98;;;7.35;;
65863;SDS011;52639;51.180;20.460;2023-01-13T19:40:42;16.33;;;6.60;;
65863;SDS011;52639;51.180;20.460;2023-01-13T19:44:55;14.15;;;9.23;;
65863;SDS011;52639;51.180;20.460;2023-01-13T19:49:16;15.35;;;7.32;;
65863;SDS011;52639;51.180;20.460;2023-01-13T19:53:21;14.20;;;7.63;;
65863;SDS011;52639;51.180;20.460;2023-01-13T19:57:25;12.30;;;7.47;;
65863;SDS011;52639;51.180;20.460;2023-01-13T20:01:29;14.18;;;7.15;;
65863;SDS011;52639;51.180;20.460;2023-01-13T20:05:35;13.88;;;7.85;;
65863;SDS011;52639;51.180;20.460;2023-01-13T20:09:42;14.25;;;8.63;;
65863;SDS011;52639;51.180;20.460;2023-01-13T20:13:46;16.80;;;7.88;;
65863;SDS011;52639;51.180;20.460;2023-01-13T20:17:56;14.35;;;8.35;;
65863;SDS011;52639;51.180;20.460;2023-01-13T20:22:00;18.77;;;8.20;;
65863;SDS011;52639;51.180;20.460;2023-01-13T20:26:06;15.65;;;8.05;;
65863;SDS011;52639;51.180;20.460;2023-01-13T20:30:10;13.40;;;7.10;;
65863;SDS011;52639;51.180;20.460;2023-01-13T20:34:14;15.52;;;8.13;;
65863;SDS011;52639;51.180;20.460;2023-01-13T20:38:21;20.23;;;10.00;;
65863;SDS011;52639;51.180;20.460;2023-01-13T20:42:28;15.10;;;7.25;;
65863;SDS011;52639;51.180;20.460;2023-01-13T20:46:40;13.43;;;7.78;;
65863;SDS011;52639;51.180;20.460;2023-01-13T20:50:50;13.43;;;7.43;;
65863;SDS011;52639;51.180;20.460;2023-01-13T20:54:58;13.43;;;7.65;;
65863;SDS011;52639;51.180;20.460;2023-01-13T20:59:03;18.02;;;8.73;;
65863;SDS011;52639;51.180;20.460;2023-01-13T21:03:07;18.55;;;8.73;;
65863;SDS011;52639;51.180;20.460;2023-01-13T21:07:10;15.27;;;8.35;;
65863;SDS011;52639;51.180;20.460;2023-01-13T21:11:13;10.32;;;5.13;;
65863;SDS011;52639;51.180;20.460;2023-01-13T21:15:38;15.10;;;7.20;;
65863;SDS011;52639;51.180;20.460;2023-01-13T21:19:41;17.55;;;9.07;;
65863;SDS011;52639;51.180;20.460;2023-01-13T21:23:44;15.73;;;8.38;;
65863;SDS011;52639;51.180;20.460;2023-01-13T21:27:52;16.77;;;8.55;;
65863;SDS011;52639;51.180;20.460;2023-01-13T21:31:58;17.08;;;8.00;;
65863;SDS011;52639;51.180;20.460;2023-01-13T21:36:02;15.73;;;8.88;;
65863;SDS011;52639;51.180;20.460;2023-01-13T21:40:06;25.30;;;11.48;;
65863;SDS011;52639;51.180;20.460;2023-01-13T21:44:12;15.50;;;9.30;;
65863;SDS011;52639;51.180;20.460;2023-01-13T21:48:35;17.23;;;9.50;;
65863;SDS011;52639;51.180;20.460;2023-01-13T21:52:38;15.45;;;8.13;;
65863;SDS011;52639;51.180;20.460;2023-01-13T21:56:42;20.55;;;10.07;;
65863;SDS011;52639;51.180;20.460;2023-01-13T22:00:45;17.83;;;8.10;;
65863;SDS011;52639;51.180;20.460;2023-01-13T22:04:50;15.25;;;8.50;;
65863;SDS011;52639;51.180;20.460;2023-01-13T22:08:53;16.00;;;8.45;;
65863;SDS011;52639;51.180;20.460;2023-01-13T22:13:00;18.67;;;8.98;;
65863;SDS011;52639;51.180;20.460;2023-01-13T22:17:25;16.15;;;7.88;;
65863;SDS011;52639;51.180;20.460;2023-01-13T22:21:32;14.55;;;8.18;;
65863;SDS011;52639;51.180;20.460;2023-01-13T22:25:36;13.85;;;7.93;;
65863;SDS011;52639;51.180;20.460;2023-01-13T22:29:39;21.70;;;10.60;;
65863;SDS011;52639;51.180;20.460;2023-01-13T22:33:42;27.20;;;14.57;;
65863;SDS011;52639;51.180;20.460;2023-01-13T22:37:48;17.85;;;9.15;;
65863;SDS011;52639;51.180;20.460;2023-01-13T22:41:51;32.78;;;15.57;;
65863;SDS011;52639;51.180;20.460;2023-01-13T22:45:57;17.83;;;9.43;;
65863;SDS011;52639;51.180;20.460;2023-01-13T22:50:00;26.23;;;12.23;;
65863;SDS011;52639;51.180;20.460;2023-01-13T22:54:05;19.73;;;10.00;;
65863;SDS011;52639;51.180;20.460;2023-01-13T22:58:08;20.73;;;10.55;;
65863;SDS011;52639;51.180;20.460;2023-01-13T23:02:11;17.63;;;8.57;;
65863;SDS011;52639;51.180;20.460;2023-01-13T23:06:14;16.00;;;8.25;;
65863;SDS011;52639;51.180;20.460;2023-01-13T23:10:20;23.70;;;10.38;;
65863;SDS011;52639;51.180;20.460;2023-01-13T23:14:23;17.92;;;8.00;;
65863;SDS011;52639;51.180;20.460;2023-01-13T23:18:26;16.30;;;7.55;;
65863;SDS011;52639;51.180;20.460;2023-01-13T23:22:29;19.73;;;9.77;;
65863;SDS011;52639;51.180;20.460;2023-01-13T23:26:34;21.38;;;9.55;;
65863;SDS011;52639;51.180;20.460;2023-01-13T23:30:38;17.17;;;8.57;;
65863;SDS011;52639;51.180;20.460;2023-01-13T23:34:41;15.35;;;8.57;;
65863;SDS011;52639;51.180;20.460;2023-01-13T23:38:44;18.05;;;9.57;;
65863;SDS011;52639;51.180;20.460;2023-01-13T23:42:48;14.65;;;8.90;;
65863;SDS011;52639;51.180;20.460;2023-01-13T23:46:51;16.88;;;8.70;;
65863;SDS011;52639;51.180;20.460;2023-01-13T23:50:57;15.27;;;8.73;;
65863;SDS011;52639;51.180;20.460;2023-01-13T23:55:00;17.80;;;8.60;;
65863;SDS011;52639;51.180;20.460;2023-01-13T23:59:04;16.73;;;8.40;;
